Time;durP1;ratioP1;P1;durP2;ratioP2;P2;SDS_P1;SDS_P2;PMS_P1;PMS_P2;Temp;Humidity;BMP_temperature;BMP_pressure;BME280_temperature;BME280_humidity;BME280_pressure;Samples;Min_cycle;Max_cycle;Signal;HPM_P1;HPM_P2
2020/12/19 00:00:59;;;;;;;1.42;1.30;;;8.00;70.80;;;;;;4994743;28;20041;-81
2020/12/19 00:03:24;;;;;;;1.60;1.20;;;8.00;70.80;;;;;;5013528;28;20061;-82
2020/12/19 00:05:50;;;;;;;2.22;1.50;;;8.00;70.80;;;;;;5012183;28;20034;-81
2020/12/19 00:08:16;;;;;;;2.97;1.58;;;8.10;70.90;;;;;;5014384;28;20102;-82
2020/12/19 00:10:41;;;;;;;2.92;2.10;;;8.00;70.80;;;;;;5008940;28;20030;-81
2020/12/19 00:13:07;;;;;;;2.72;1.80;;;7.90;70.70;;;;;;5012844;28;20408;-82
2020/12/19 00:15:32;;;;;;;1.98;1.30;;;7.90;70.70;;;;;;5014074;28;20038;-82
2020/12/19 00:17:58;;;;;;;1.63;1.52;;;8.00;70.80;;;;;;5015510;28;20118;-82
2020/12/19 00:20:23;;;;;;;2.00;1.63;;;7.90;70.80;;;;;;5017650;28;20038;-82
2020/12/19 00:22:49;;;;;;;1.92;1.55;;;7.90;70.80;;;;;;5014876;28;20069;-82
2020/12/19 00:25:15;;;;;;;2.10;1.70;;;7.90;70.90;;;;;;5015728;28;20022;-81
2020/12/19 00:27:40;;;;;;;1.50;1.40;;;7.80;70.90;;;;;;5014259;28;20037;-82
2020/12/19 00:30:07;;;;;;;1.90;1.33;;;7.80;70.90;;;;;;5017317;28;20045;-82
2020/12/19 00:32:32;;;;;;;1.90;1.60;;;7.80;71.00;;;;;;5016302;28;20500;-82
2020/12/19 00:34:58;;;;;;;2.38;1.45;;;7.80;71.00;;;;;;5017398;28;20093;-82
2020/12/19 00:37:24;;;;;;;1.75;1.40;;;7.70;70.90;;;;;;5017280;28;20042;-82
2020/12/19 00:39:51;;;;;;;1.90;1.58;;;7.80;71.00;;;;;;5014960;28;20041;-82
2020/12/19 00:42:17;;;;;;;1.88;1.40;;;7.90;71.00;;;;;;5015385;28;20033;-81
2020/12/19 00:44:42;;;;;;;1.75;1.42;;;7.80;71.00;;;;;;5013072;28;20058;-82
2020/12/19 00:47:08;;;;;;;2.33;1.70;;;7.80;71.00;;;;;;5014586;28;20034;-82
2020/12/19 00:49:34;;;;;;;2.15;1.70;;;7.70;70.90;;;;;;5014036;28;20042;-82
2020/12/19 00:51:59;;;;;;;2.67;1.77;;;7.70;70.90;;;;;;4999438;28;20041;-82
2020/12/19 00:54:25;;;;;;;2.10;1.58;;;7.70;70.90;;;;;;5014357;28;20037;-82
2020/12/19 00:56:53;;;;;;;1.67;1.40;;;7.70;71.00;;;;;;5014499;28;20026;-82
2020/12/19 00:59:19;;;;;;;2.03;1.50;;;7.70;71.00;;;;;;5014160;28;20037;-82
2020/12/19 01:01:45;;;;;;;2.08;1.55;;;7.70;71.00;;;;;;5014996;28;20026;-82
2020/12/19 01:04:10;;;;;;;1.98;1.63;;;7.70;71.00;;;;;;5012944;28;20093;-82
2020/12/19 01:06:36;;;;;;;1.88;1.67;;;7.70;71.00;;;;;;5014410;28;20062;-82
2020/12/19 01:09:04;;;;;;;2.15;1.83;;;7.70;71.10;;;;;;5015790;28;20083;-82
2020/12/19 01:11:30;;;;;;;1.88;1.67;;;7.60;71.10;;;;;;5013478;28;20160;-82
2020/12/19 01:13:56;;;;;;;2.45;2.25;;;7.60;71.20;;;;;;5013414;28;20044;-82
2020/12/19 01:16:25;;;;;;;2.30;1.85;;;7.60;71.20;;;;;;5013497;28;20400;-82
2020/12/19 01:18:52;;;;;;;2.72;2.05;;;7.60;71.30;;;;;;5014282;28;20053;-82
2020/12/19 01:21:20;;;;;;;2.20;1.77;;;7.70;71.40;;;;;;5015520;28;20025;-82
2020/12/19 01:23:47;;;;;;;2.03;1.73;;;7.60;71.30;;;;;;5014282;28;20040;-82
2020/12/19 01:26:13;;;;;;;2.15;1.73;;;7.60;71.30;;;;;;5014403;28;20046;-82
2020/12/19 01:28:38;;;;;;;2.53;1.58;;;7.60;71.40;;;;;;4996861;28;20041;-82
2020/12/19 01:31:05;;;;;;;3.08;1.67;;;7.60;71.40;;;;;;5013469;28;20037;-82
2020/12/19 01:33:31;;;;;;;3.38;2.22;;;7.70;71.40;;;;;;5013241;28;20030;-82
2020/12/19 01:35:57;;;;;;;2.33;1.98;;;7.70;71.40;;;;;;5013385;28;20060;-82
2020/12/19 01:38:23;;;;;;;2.55;2.00;;;7.70;71.40;;;;;;5013364;28;20036;-82
2020/12/19 01:40:53;;;;;;;2.90;2.13;;;7.60;71.40;;;;;;5012639;28;20030;-82
2020/12/19 01:43:19;;;;;;;2.10;1.85;;;7.60;71.40;;;;;;5014645;28;20034;-82
2020/12/19 01:45:45;;;;;;;2.72;1.80;;;7.70;71.50;;;;;;5014801;28;20064;-82
2020/12/19 01:48:20;;;;;;;2.30;1.77;;;7.70;71.50;;;;;;5015913;28;20029;-82
2020/12/19 01:50:48;;;;;;;2.85;2.10;;;7.70;71.60;;;;;;5013638;28;20416;-82
2020/12/19 01:53:16;;;;;;;2.63;2.25;;;7.70;71.60;;;;;;5014776;28;20090;-82
2020/12/19 01:55:43;;;;;;;2.42;1.75;;;7.70;71.60;;;;;;5015564;28;20037;-82
2020/12/19 01:58:08;;;;;;;2.65;2.25;;;7.70;71.60;;;;;;5013117;28;20053;-81
2020/12/19 02:00:38;;;;;;;2.15;1.77;;;7.70;71.60;;;;;;5013492;28;20440;-82
2020/12/19 02:03:04;;;;;;;3.63;3.03;;;7.80;71.60;;;;;;5006994;28;20030;-82
2020/12/19 02:05:32;;;;;;;2.67;2.33;;;7.80;71.60;;;;;;5012275;28;20041;-82
2020/12/19 02:07:58;;;;;;;2.30;1.90;;;7.80;71.60;;;;;;5013411;28;20056;-82
2020/12/19 02:10:24;;;;;;;2.53;2.28;;;7.70;71.50;;;;;;4995717;28;20313;-82
2020/12/19 02:12:49;;;;;;;3.10;2.30;;;7.70;71.40;;;;;;5012439;28;20026;-83
2020/12/19 02:15:15;;;;;;;3.10;2.13;;;7.80;71.90;;;;;;5015029;28;20053;-82
2020/12/19 02:17:41;;;;;;;2.20;1.63;;;7.70;71.30;;;;;;5013286;28;20094;-82
2020/12/19 02:20:06;;;;;;;3.10;2.80;;;7.90;71.50;;;;;;5012673;28;20505;-82
2020/12/19 02:22:33;;;;;;;3.25;2.13;;;7.80;71.40;;;;;;5015086;28;20033;-82
2020/12/19 02:24:58;;;;;;;2.75;2.20;;;7.70;71.50;;;;;;5014975;28;20041;-82
2020/12/19 02:27:24;;;;;;;2.95;2.20;;;7.70;71.50;;;;;;5014827;28;20030;-82
2020/12/19 02:29:49;;;;;;;2.95;2.35;;;7.80;71.60;;;;;;5015989;28;20037;-82
2020/12/19 02:32:15;;;;;;;3.47;2.63;;;7.80;71.60;;;;;;5010711;28;20041;-82
2020/12/19 02:34:40;;;;;;;2.38;2.05;;;7.80;71.60;;;;;;5010126;28;20568;-82
2020/12/19 02:37:06;;;;;;;3.30;2.50;;;7.80;71.60;;;;;;5011060;28;20464;-82
2020/12/19 02:39:31;;;;;;;3.33;2.63;;;7.80;71.70;;;;;;5012240;28;20022;-83
2020/12/19 02:41:57;;;;;;;3.50;2.70;;;7.80;71.70;;;;;;5013053;28;20049;-83
2020/12/19 02:44:23;;;;;;;3.33;2.70;;;7.80;71.70;;;;;;5013163;28;20034;-82
2020/12/19 02:46:49;;;;;;;3.47;2.88;;;7.80;71.70;;;;;;5008780;28;20045;-82
2020/12/19 02:49:15;;;;;;;3.42;2.78;;;7.80;71.70;;;;;;5010223;28;20689;-82
2020/12/19 02:51:40;;;;;;;3.97;2.88;;;7.90;71.80;;;;;;5013073;28;20037;-82
2020/12/19 02:54:06;;;;;;;4.45;2.97;;;7.90;71.80;;;;;;5010863;28;20103;-82
2020/12/19 02:56:32;;;;;;;3.55;3.03;;;7.90;71.70;;;;;;5009801;28;20026;-82
2020/12/19 02:58:57;;;;;;;3.63;2.90;;;7.90;71.70;;;;;;5010313;28;20093;-82
2020/12/19 03:01:27;;;;;;;3.15;2.38;;;7.90;71.70;;;;;;5014053;28;20022;-82
2020/12/19 03:03:53;;;;;;;4.10;2.97;;;7.90;71.70;;;;;;5007815;28;20046;-82
2020/12/19 03:06:18;;;;;;;3.92;2.97;;;7.90;71.60;;;;;;5015115;28;20033;-82
2020/12/19 03:08:44;;;;;;;3.88;3.28;;;7.90;71.60;;;;;;5014221;28;20528;-82
2020/12/19 03:11:09;;;;;;;4.28;3.10;;;7.90;71.60;;;;;;5012121;28;20309;-82
2020/12/19 03:13:38;;;;;;;3.88;3.10;;;7.90;71.60;;;;;;5002638;28;20041;-82
2020/12/19 03:16:03;;;;;;;6.63;3.40;;;7.90;71.70;;;;;;4987099;28;20480;-82
2020/12/19 03:18:28;;;;;;;3.65;3.03;;;7.90;71.70;;;;;;5024390;28;20033;-82
2020/12/19 03:20:54;;;;;;;3.42;3.05;;;7.90;71.70;;;;;;5021189;28;20029;-82
2020/12/19 03:23:20;;;;;;;4.78;3.08;;;8.00;71.80;;;;;;5015706;28;20069;-82
2020/12/19 03:25:46;;;;;;;3.95;2.92;;;7.90;71.70;;;;;;5013530;28;20046;-82
2020/12/19 03:28:12;;;;;;;5.05;3.40;;;7.90;71.70;;;;;;5010446;28;20030;-82
2020/12/19 03:30:37;;;;;;;4.57;3.58;;;7.90;71.70;;;;;;5010538;28;20579;-82
2020/12/19 03:33:03;;;;;;;7.45;3.13;;;8.00;71.80;;;;;;5011142;28;20156;-82
2020/12/19 03:35:29;;;;;;;4.35;3.38;;;7.90;71.70;;;;;;5008510;28;20090;-82
2020/12/19 03:37:55;;;;;;;3.97;2.90;;;7.90;71.80;;;;;;5010385;28;20545;-82
2020/12/19 03:40:20;;;;;;;4.03;3.17;;;7.90;71.80;;;;;;5012086;28;20141;-82
2020/12/19 03:42:46;;;;;;;5.25;4.13;;;7.90;71.80;;;;;;5009152;28;20050;-82
2020/12/19 03:45:11;;;;;;;5.50;3.13;;;7.90;71.90;;;;;;5009924;28;20080;-81
2020/12/19 03:47:37;;;;;;;4.75;3.55;;;8.00;71.90;;;;;;5009592;28;20038;-82
2020/12/19 03:50:04;;;;;;;5.70;3.83;;;8.00;71.90;;;;;;5013484;28;20062;-82
2020/12/19 03:52:30;;;;;;;5.10;3.78;;;8.00;71.90;;;;;;5010576;28;20026;-82
2020/12/19 03:54:56;;;;;;;4.28;3.17;;;8.00;72.50;;;;;;5011739;28;20704;-82
2020/12/19 03:57:21;;;;;;;7.55;3.63;;;8.00;71.90;;;;;;5008562;28;20116;-82
2020/12/19 03:59:46;;;;;;;5.22;3.83;;;8.00;71.90;;;;;;5005323;28;20030;-82
2020/12/19 04:02:12;;;;;;;4.32;3.47;;;8.10;72.00;;;;;;5009783;28;20033;-82
2020/12/19 04:04:37;;;;;;;5.20;3.53;;;8.10;72.00;;;;;;5010613;28;20069;-82
2020/12/19 04:07:03;;;;;;;5.82;3.80;;;8.10;72.00;;;;;;5012779;28;20045;-82
2020/12/19 04:09:29;;;;;;;4.45;3.47;;;8.10;72.00;;;;;;5009572;28;20180;-82
2020/12/19 04:11:55;;;;;;;4.68;3.60;;;8.10;72.00;;;;;;5011023;28;20112;-82
2020/12/19 04:14:20;;;;;;;6.38;3.55;;;8.10;72.00;;;;;;5010245;28;20022;-82
2020/12/19 04:16:47;;;;;;;4.10;3.47;;;8.10;71.90;;;;;;5011021;28;20102;-82
2020/12/19 04:19:13;;;;;;;4.55;3.72;;;8.20;71.90;;;;;;5009530;28;20037;-82
2020/12/19 04:21:38;;;;;;;4.82;3.22;;;8.10;71.80;;;;;;5011076;28;20062;-82
2020/12/19 04:24:04;;;;;;;5.22;3.65;;;8.10;71.70;;;;;;5010333;28;20034;-82
2020/12/19 04:26:29;;;;;;;4.70;3.53;;;8.10;71.70;;;;;;5009182;28;20101;-82
2020/12/19 04:28:55;;;;;;;4.40;3.05;;;8.10;71.70;;;;;;5009826;28;20038;-82
2020/12/19 04:31:20;;;;;;;4.95;3.47;;;8.20;71.80;;;;;;5010790;28;20058;-82
2020/12/19 04:33:46;;;;;;;3.75;3.08;;;8.10;71.70;;;;;;5007987;28;20041;-82
2020/12/19 04:36:11;;;;;;;4.97;3.83;;;8.10;71.70;;;;;;5011350;28;20521;-82
2020/12/19 04:38:37;;;;;;;4.85;3.75;;;8.10;71.70;;;;;;5009837;28;20393;-82
2020/12/19 04:41:04;;;;;;;5.40;3.80;;;8.10;71.70;;;;;;5008568;28;20093;-82
2020/12/19 04:43:29;;;;;;;4.03;3.63;;;8.10;71.70;;;;;;5008865;28;20042;-82
2020/12/19 04:45:55;;;;;;;3.80;3.17;;;8.10;71.80;;;;;;5003506;28;20104;-82
2020/12/19 04:48:24;;;;;;;3.88;3.10;;;8.10;71.80;;;;;;5009082;28;20030;-82
2020/12/19 04:50:50;;;;;;;5.07;3.80;;;8.00;71.70;;;;;;5009868;28;20129;-82
2020/12/19 04:53:18;;;;;;;3.97;3.50;;;8.10;71.80;;;;;;5010886;28;20030;-82
2020/12/19 04:55:44;;;;;;;4.13;3.60;;;8.00;71.70;;;;;;5010333;28;20034;-82
2020/12/19 04:58:19;;;;;;;5.40;3.55;;;8.00;71.70;;;;;;5008976;28;20048;-82
2020/12/19 05:00:46;;;;;;;4.82;3.38;;;8.00;71.70;;;;;;5011435;28;20034;-82
2020/12/19 05:03:11;;;;;;;4.28;3.50;;;8.10;71.70;;;;;;5011910;28;20517;-82
2020/12/19 05:05:41;;;;;;;4.35;3.42;;;8.00;71.60;;;;;;5012851;28;20050;-82
2020/12/19 05:08:06;;;;;;;4.68;3.63;;;8.00;71.60;;;;;;5012559;28;20041;-82
2020/12/19 05:10:32;;;;;;;4.53;3.28;;;8.00;71.60;;;;;;5012958;28;20400;-82
2020/12/19 05:12:57;;;;;;;4.90;3.85;;;8.00;71.60;;;;;;5008061;28;20053;-81
2020/12/19 05:15:23;;;;;;;5.00;3.75;;;8.00;71.60;;;;;;5013622;28;20042;-82
2020/12/19 05:17:53;;;;;;;4.60;4.10;;;7.90;71.50;;;;;;5014610;28;20481;-82
2020/12/19 05:20:20;;;;;;;4.17;3.43;;;8.00;71.60;;;;;;5016364;28;20038;-82
2020/12/19 05:22:48;;;;;;;4.53;3.65;;;8.00;71.60;;;;;;5011579;28;20281;-82
2020/12/19 05:25:15;;;;;;;4.55;3.83;;;7.90;71.50;;;;;;5012417;28;20033;-82
2020/12/19 05:27:43;;;;;;;4.15;3.50;;;7.90;71.60;;;;;;5010820;28;20060;-82
2020/12/19 05:30:09;;;;;;;4.85;3.22;;;7.90;71.60;;;;;;5012180;28;20034;-82
2020/12/19 05:32:41;;;;;;;3.50;3.20;;;7.90;71.60;;;;;;5010809;28;20088;-82
2020/12/19 05:35:07;;;;;;;5.07;3.58;;;7.80;71.50;;;;;;5009408;28;20034;-82
2020/12/19 05:37:32;;;;;;;4.55;3.60;;;7.80;71.50;;;;;;5012910;28;20045;-82
2020/12/19 05:39:58;;;;;;;4.15;3.42;;;7.90;71.50;;;;;;5013264;28;20026;-82
2020/12/19 05:42:24;;;;;;;4.32;3.40;;;7.80;71.50;;;;;;5013293;28;20026;-82
2020/12/19 05:44:49;;;;;;;4.80;3.78;;;7.80;71.50;;;;;;5011856;28;20111;-82
2020/12/19 05:47:16;;;;;;;5.22;3.38;;;7.70;71.50;;;;;;5012165;28;20026;-82
2020/12/19 05:49:42;;;;;;;4.53;3.63;;;7.80;71.60;;;;;;5012344;28;20030;-82
2020/12/19 05:52:09;;;;;;;3.83;3.20;;;7.70;71.70;;;;;;5010735;28;20026;-82
2020/12/19 05:54:39;;;;;;;4.22;3.55;;;7.70;72.20;;;;;;5012318;28;20080;-82
2020/12/19 05:57:08;;;;;;;4.03;3.40;;;7.70;71.80;;;;;;5008513;28;20030;-82
2020/12/19 05:59:34;;;;;;;4.03;3.40;;;7.70;71.80;;;;;;5011047;28;20038;-82
2020/12/19 06:02:02;;;;;;;3.20;2.67;;;7.70;71.80;;;;;;5010303;28;20088;-82
2020/12/19 06:04:28;;;;;;;4.25;3.30;;;7.70;71.80;;;;;;5011456;28;20378;-82
2020/12/19 06:06:56;;;;;;;4.22;3.50;;;7.80;71.80;;;;;;5009847;28;20124;-82
2020/12/19 06:09:23;;;;;;;4.40;3.63;;;7.70;71.70;;;;;;5009170;28;20049;-82
2020/12/19 06:12:06;;;;;;;3.85;2.95;;;7.70;71.60;;;;;;5006066;28;20102;-82
2020/12/19 06:14:38;;;;;;;4.57;3.50;;;7.70;71.70;;;;;;5012064;28;20030;-83
2020/12/19 06:17:15;;;;;;;6.00;3.88;;;7.70;71.60;;;;;;5007946;28;20045;-82
2020/12/19 06:19:43;;;;;;;4.07;3.10;;;7.70;71.70;;;;;;5012454;28;20030;-82
2020/12/19 06:22:09;;;;;;;4.53;3.75;;;7.60;71.70;;;;;;5019722;28;20022;-82
2020/12/19 06:24:41;;;;;;;4.82;3.88;;;7.60;71.70;;;;;;5019959;28;20287;-82
2020/12/19 06:27:31;;;;;;;4.03;2.78;;;7.70;71.90;;;;;;5015104;28;20036;-82
2020/12/19 06:29:57;;;;;;;3.60;2.83;;;7.60;71.90;;;;;;5019487;28;20524;-82
2020/12/19 06:32:27;;;;;;;5.07;3.25;;;7.60;71.90;;;;;;5020132;28;20022;-82
2020/12/19 06:35:10;;;;;;;5.63;3.80;;;7.60;71.90;;;;;;5014771;28;20022;-82
2020/12/19 06:37:38;;;;;;;5.10;3.90;;;7.60;72.10;;;;;;5020352;28;20128;-82
2020/12/19 06:40:19;;;;;;;4.07;3.38;;;7.60;71.90;;;;;;5020527;28;20029;-82
2020/12/19 06:42:47;;;;;;;4.38;3.53;;;7.60;72.10;;;;;;5019687;28;20026;-82
2020/12/19 06:45:27;;;;;;;3.45;3.00;;;7.60;72.00;;;;;;5020323;28;20453;-82
2020/12/19 06:47:53;;;;;;;4.28;3.47;;;7.70;72.20;;;;;;5014861;28;20053;-82
2020/12/19 06:50:20;;;;;;;5.03;3.58;;;7.70;72.10;;;;;;5028117;28;20048;-82
2020/12/19 06:52:53;;;;;;;4.03;3.08;;;7.70;72.10;;;;;;5032833;28;20082;-82
2020/12/19 06:55:20;;;;;;;6.05;3.97;;;7.70;72.20;;;;;;5025486;28;20022;-82
2020/12/19 06:57:53;;;;;;;5.45;4.60;;;7.70;72.20;;;;;;5020717;28;20022;-82
2020/12/19 07:00:28;;;;;;;5.80;3.67;;;7.60;72.20;;;;;;5020188;28;20029;-82
2020/12/19 07:02:56;;;;;;;5.10;3.78;;;7.70;72.20;;;;;;5019208;28;20467;-82
2020/12/19 07:05:27;;;;;;;5.25;4.20;;;7.70;72.20;;;;;;5018682;28;20036;-82
2020/12/19 07:07:54;;;;;;;5.13;3.70;;;7.70;72.20;;;;;;5019375;28;20106;-82
2020/12/19 07:10:35;;;;;;;5.78;4.07;;;7.80;72.20;;;;;;5019539;28;20018;-82
2020/12/19 07:13:01;;;;;;;4.47;3.60;;;7.90;72.40;;;;;;5011670;28;20029;-82
2020/12/19 07:15:47;;;;;;;4.78;3.67;;;7.80;72.00;;;;;;5019935;28;20026;-82
2020/12/19 07:18:33;;;;;;;4.28;3.47;;;7.80;72.30;;;;;;5014589;28;20021;-83
2020/12/19 07:21:01;;;;;;;3.78;3.08;;;7.80;72.20;;;;;;5021892;28;20040;-84
2020/12/19 07:23:28;;;;;;;4.68;3.58;;;7.80;72.00;;;;;;5023340;28;20052;-84
2020/12/19 07:25:53;;;;;;;5.13;4.28;;;7.80;72.00;;;;;;5023316;28;20025;-84
2020/12/19 07:28:19;;;;;;;5.00;4.03;;;7.70;72.00;;;;;;5022782;28;20032;-84
2020/12/19 07:30:45;;;;;;;4.60;3.30;;;7.80;72.10;;;;;;5022293;28;20034;-84
2020/12/19 07:33:11;;;;;;;4.45;3.90;;;7.80;72.10;;;;;;5020838;28;20072;-84
2020/12/19 07:35:36;;;;;;;4.55;3.60;;;7.80;72.10;;;;;;5018139;28;20045;-84
2020/12/19 07:38:04;;;;;;;5.82;3.50;;;7.80;72.10;;;;;;5018848;28;20022;-84
2020/12/19 07:40:29;;;;;;;4.40;3.65;;;7.70;72.00;;;;;;5019417;28;20034;-84
2020/12/19 07:43:03;;;;;;;4.40;3.58;;;7.80;72.00;;;;;;5018680;28;20477;-84
2020/12/19 07:45:29;;;;;;;4.55;3.63;;;7.70;72.00;;;;;;5017847;28;20021;-84
2020/12/19 07:47:54;;;;;;;5.60;4.25;;;7.70;71.90;;;;;;5017946;28;20029;-84
2020/12/19 07:50:31;;;;;;;4.15;3.55;;;7.70;71.90;;;;;;5018207;28;20060;-84
2020/12/19 07:53:08;;;;;;;6.00;3.90;;;7.70;72.00;;;;;;5011460;28;20013;-84
2020/12/19 07:55:35;;;;;;;4.88;3.17;;;7.70;72.10;;;;;;5016097;28;20030;-85
2020/12/19 07:58:02;;;;;;;5.30;3.85;;;7.70;72.00;;;;;;5016565;28;20033;-85
2020/12/19 08:00:28;;;;;;;5.05;4.13;;;7.70;72.00;;;;;;5017261;28;20026;-85
2020/12/19 08:02:54;;;;;;;5.03;3.72;;;7.70;72.10;;;;;;5016133;28;20034;-85
2020/12/19 08:05:20;;;;;;;4.43;3.58;;;7.70;72.10;;;;;;5018787;28;20584;-84
2020/12/19 08:07:50;;;;;;;4.53;3.65;;;7.70;72.10;;;;;;5022060;28;20033;-83
2020/12/19 08:10:16;;;;;;;4.88;3.83;;;7.70;72.20;;;;;;5022041;28;20033;-83
2020/12/19 08:12:42;;;;;;;5.30;3.88;;;7.70;72.10;;;;;;5020936;28;20022;-83
2020/12/19 08:15:16;;;;;;;4.90;3.72;;;7.80;72.20;;;;;;5021647;28;20045;-84
2020/12/19 08:17:51;;;;;;;5.88;4.13;;;7.70;72.80;;;;;;5022752;28;20033;-83
2020/12/19 08:20:22;;;;;;;5.72;3.53;;;7.70;72.30;;;;;;5022737;28;20053;-83
2020/12/19 08:22:48;;;;;;;;;;;7.70;72.80;;;;;;5023135;28;20072;-83
2020/12/19 08:25:13;;;;;;;4.63;3.65;;;7.80;72.80;;;;;;5023350;28;19957;-84
2020/12/19 08:27:43;;;;;;;6.00;3.83;;;7.70;72.10;;;;;;5022849;28;20497;-83
2020/12/19 08:30:16;;;;;;;4.65;3.67;;;7.80;72.30;;;;;;5021740;28;20074;-84
2020/12/19 08:32:44;;;;;;;4.45;3.78;;;7.80;72.40;;;;;;5022419;28;20022;-83
2020/12/19 08:35:16;;;;;;;4.97;4.13;;;7.80;72.40;;;;;;5023340;28;20045;-83
2020/12/19 08:37:42;;;;;;;4.55;3.83;;;7.80;72.40;;;;;;5026414;28;20026;-83
2020/12/19 08:40:14;;;;;;;5.55;4.22;;;7.90;72.60;;;;;;5025593;28;20029;-83
2020/12/19 08:42:40;;;;;;;5.15;4.10;;;7.80;72.60;;;;;;5023612;28;20041;-82
2020/12/19 08:45:26;;;;;;;7.10;5.10;;;7.90;72.70;;;;;;5026150;28;20082;-83
2020/12/19 08:47:57;;;;;;;6.15;4.88;;;7.90;73.00;;;;;;5026393;28;20018;-84
2020/12/19 08:50:25;;;;;;;6.93;4.28;;;8.00;72.90;;;;;;5025272;28;20053;-83
2020/12/19 08:53:05;;;;;;;5.25;4.45;;;8.00;72.90;;;;;;5026059;28;20030;-83
2020/12/19 08:55:31;;;;;;;4.60;3.65;;;8.00;73.10;;;;;;5026613;28;20026;-84
2020/12/19 08:57:56;;;;;;;6.03;4.68;;;8.10;72.90;;;;;;5026277;28;20022;-83
2020/12/19 09:00:22;;;;;;;5.85;4.15;;;8.10;72.90;;;;;;5026486;28;20026;-83
2020/12/19 09:02:50;;;;;;;5.55;4.15;;;8.10;73.00;;;;;;5018280;28;20030;-83
2020/12/19 09:05:15;;;;;;;4.55;3.53;;;8.10;73.00;;;;;;5024195;28;20029;-83
2020/12/19 09:07:41;;;;;;;6.07;4.75;;;8.20;73.10;;;;;;5024664;28;20030;-83
2020/12/19 09:10:27;;;;;;;4.22;3.47;;;8.20;73.10;;;;;;5022207;28;20029;-83
2020/12/19 09:13:17;;;;;;;5.80;4.72;;;8.30;73.50;;;;;;5019391;28;20032;-84
2020/12/19 09:15:44;;;;;;;5.97;4.23;;;8.30;73.50;;;;;;5024799;28;20122;-83
2020/12/19 09:18:21;;;;;;;5.53;4.80;;;8.40;73.20;;;;;;5024437;28;20022;-82
2020/12/19 09:20:52;;;;;;;5.80;3.97;;;8.50;73.20;;;;;;5022564;28;20022;-82
2020/12/19 09:23:18;;;;;;;5.15;4.53;;;8.40;73.10;;;;;;5025658;28;20022;-83
2020/12/19 09:25:45;;;;;;;6.35;5.10;;;8.50;73.00;;;;;;5022045;28;20519;-82
2020/12/19 09:28:10;;;;;;;4.90;3.95;;;8.50;73.00;;;;;;5026589;28;20040;-81
2020/12/19 09:30:36;;;;;;;4.97;4.05;;;8.60;73.10;;;;;;5025552;28;20041;-81
2020/12/19 09:33:01;;;;;;;6.85;5.00;;;8.60;73.10;;;;;;5024670;28;20037;-82
2020/12/19 09:35:28;;;;;;;5.47;4.13;;;8.60;73.10;;;;;;5025804;28;20053;-82
2020/12/19 09:37:54;;;;;;;5.32;4.45;;;8.70;73.20;;;;;;5025846;28;20022;-82
2020/12/19 09:40:20;;;;;;;5.25;4.07;;;8.70;73.20;;;;;;5025545;28;20036;-82
2020/12/19 09:42:46;;;;;;;6.03;4.80;;;8.70;73.30;;;;;;5023916;28;20030;-82
2020/12/19 09:45:12;;;;;;;6.50;5.10;;;8.70;73.30;;;;;;5024602;28;20026;-82
2020/12/19 09:47:41;;;;;;;5.80;4.40;;;8.80;73.30;;;;;;5025063;28;20030;-82
2020/12/19 09:50:07;;;;;;;4.25;3.85;;;8.80;73.30;;;;;;5023282;28;20036;-83
2020/12/19 09:52:33;;;;;;;4.93;4.22;;;8.80;73.30;;;;;;5022461;28;20045;-81
2020/12/19 09:54:58;;;;;;;6.90;4.90;;;8.90;73.40;;;;;;5024705;28;20029;-82
2020/12/19 09:57:24;;;;;;;6.82;4.55;;;8.90;73.50;;;;;;5017334;28;20037;-82
2020/12/19 09:59:49;;;;;;;5.38;4.30;;;8.90;73.50;;;;;;5020884;28;20036;-81
2020/12/19 10:02:15;;;;;;;6.63;5.05;;;8.90;73.60;;;;;;5022841;28;20025;-85
2020/12/19 10:04:40;;;;;;;5.13;4.35;;;9.00;73.70;;;;;;5021812;28;20084;-80
2020/12/19 10:07:06;;;;;;;5.32;4.60;;;9.00;73.70;;;;;;5012791;28;20026;-80
2020/12/19 10:09:31;;;;;;;6.18;5.05;;;9.10;73.80;;;;;;5012043;28;20074;-80
2020/12/19 10:11:57;;;;;;;5.97;4.45;;;9.10;73.80;;;;;;5014207;28;20033;-80
2020/12/19 10:14:22;;;;;;;5.40;4.45;;;9.20;73.90;;;;;;5013665;28;20030;-81
2020/12/19 10:16:48;;;;;;;6.00;5.00;;;9.30;74.00;;;;;;5014542;28;20037;-80
2020/12/19 10:19:14;;;;;;;5.13;4.60;;;9.30;74.00;;;;;;5010955;28;20060;-81
2020/12/19 10:21:39;;;;;;;5.75;4.70;;;9.40;74.10;;;;;;5014186;28;20036;-82
2020/12/19 10:24:05;;;;;;;6.05;4.57;;;9.40;74.10;;;;;;5014965;28;20034;-81
2020/12/19 10:26:30;;;;;;;5.90;4.45;;;9.70;74.20;;;;;;5025309;28;20026;-80
2020/12/19 10:28:57;;;;;;;5.80;4.50;;;9.60;74.20;;;;;;5027995;28;20061;-81
2020/12/19 10:31:27;;;;;;;5.68;4.55;;;9.60;74.20;;;;;;5026773;28;20022;-81
2020/12/19 10:33:53;;;;;;;6.28;4.50;;;9.70;74.20;;;;;;5020510;28;20089;-81
2020/12/19 10:36:19;;;;;;;5.38;4.38;;;9.70;74.20;;;;;;5025596;28;20473;-81
2020/12/19 10:38:44;;;;;;;6.47;4.97;;;9.90;74.30;;;;;;5026225;28;20028;-84
2020/12/19 10:41:14;;;;;;;5.60;4.10;;;9.90;74.30;;;;;;5025311;28;20049;-81
2020/12/19 10:43:40;;;;;;;5.60;4.50;;;10.00;74.30;;;;;;5023215;28;20061;-82
2020/12/19 10:46:06;;;;;;;5.80;4.78;;;10.00;74.20;;;;;;5025356;28;20054;-82
2020/12/19 10:48:31;;;;;;;5.07;4.55;;;10.10;74.20;;;;;;5024478;28;20018;-82
2020/12/19 10:50:57;;;;;;;5.20;4.60;;;10.10;74.10;;;;;;5024314;28;20076;-80
2020/12/19 10:53:23;;;;;;;5.28;4.30;;;10.20;74.10;;;;;;5024718;28;20365;-81
2020/12/19 10:55:49;;;;;;;5.32;4.72;;;10.20;74.10;;;;;;5006275;28;20112;-79
2020/12/19 10:58:15;;;;;;;5.32;4.43;;;10.20;74.10;;;;;;5019390;28;20432;-80
2020/12/19 11:00:40;;;;;;;6.13;4.68;;;10.30;74.20;;;;;;5011881;28;20050;-80
2020/12/19 11:03:06;;;;;;;5.30;4.70;;;10.40;74.20;;;;;;5020812;28;20028;-79
2020/12/19 11:05:31;;;;;;;4.85;4.20;;;10.40;74.20;;;;;;5021714;28;20030;-80
2020/12/19 11:07:57;;;;;;;5.30;4.18;;;10.50;74.30;;;;;;5025240;28;20048;-80
2020/12/19 11:10:22;;;;;;;4.63;3.95;;;10.60;74.40;;;;;;5024635;28;20038;-80
2020/12/19 11:12:48;;;;;;;4.93;4.22;;;10.60;74.30;;;;;;5025095;28;20041;-80
2020/12/19 11:15:13;;;;;;;4.85;3.80;;;10.80;74.40;;;;;;5024426;28;20034;-79
2020/12/19 11:17:39;;;;;;;5.68;4.82;;;10.70;74.30;;;;;;5019545;28;20027;-83
2020/12/19 11:20:04;;;;;;;4.90;4.30;;;10.80;74.30;;;;;;5014864;28;20048;-80
2020/12/19 11:22:31;;;;;;;5.30;4.22;;;11.10;74.40;;;;;;5013919;28;20032;-80
2020/12/19 11:24:56;;;;;;;6.00;4.35;;;10.90;74.20;;;;;;5019836;28;20091;-80
2020/12/19 11:27:22;;;;;;;5.43;4.13;;;11.00;74.20;;;;;;5025006;28;20025;-81
2020/12/19 11:29:47;;;;;;;4.82;4.13;;;11.00;74.20;;;;;;5024571;28;20025;-81
2020/12/19 11:32:13;;;;;;;4.18;3.78;;;11.00;74.20;;;;;;5026697;28;20177;-81
2020/12/19 11:34:38;;;;;;;5.93;4.55;;;11.10;74.20;;;;;;5025340;28;20036;-81
2020/12/19 11:37:04;;;;;;;5.10;4.15;;;11.10;74.10;;;;;;5025884;28;20026;-80
2020/12/19 11:39:29;;;;;;;4.35;3.35;;;11.20;74.10;;;;;;5026923;28;20022;-81
2020/12/19 11:42:01;;;;;;;3.83;3.42;;;11.20;74.10;;;;;;5026033;28;20104;-80
2020/12/19 11:44:26;;;;;;;4.43;3.42;;;11.30;74.20;;;;;;5019262;28;20362;-80
2020/12/19 11:46:52;;;;;;;4.95;4.18;;;11.30;74.20;;;;;;5025963;28;20029;-81
2020/12/19 11:49:17;;;;;;;4.78;4.05;;;11.40;74.30;;;;;;5022460;28;20026;-80
2020/12/19 11:51:43;;;;;;;4.70;4.18;;;11.40;74.30;;;;;;5026062;28;20088;-80
2020/12/19 11:54:08;;;;;;;5.15;3.90;;;11.40;74.30;;;;;;5025978;28;20025;-80
2020/12/19 11:56:37;;;;;;;4.72;3.78;;;11.50;74.30;;;;;;5026330;28;20022;-80
2020/12/19 11:59:03;;;;;;;3.95;3.42;;;11.60;74.30;;;;;;5018778;28;20026;-80
2020/12/19 12:01:29;;;;;;;5.22;4.25;;;11.70;74.30;;;;;;5026077;28;20398;-81
2020/12/19 12:03:55;;;;;;;4.68;4.18;;;11.70;74.10;;;;;;5024799;28;20072;-81
2020/12/19 12:06:32;;;;;;;4.35;3.90;;;11.70;74.10;;;;;;5026337;28;20026;-81
2020/12/19 12:08:58;;;;;;;5.10;4.20;;;11.80;74.30;;;;;;5021519;28;20022;-81
2020/12/19 12:11:25;;;;;;;5.65;4.32;;;11.80;74.50;;;;;;5029699;28;20046;-81
2020/12/19 12:13:51;;;;;;;3.97;3.22;;;11.90;74.60;;;;;;5024247;28;20021;-80
2020/12/19 12:16:17;;;;;;;4.22;3.63;;;12.00;74.80;;;;;;5030206;28;20502;-81
2020/12/19 12:18:43;;;;;;;4.72;4.00;;;12.00;74.90;;;;;;5029506;28;20024;-81
2020/12/19 12:21:08;;;;;;;4.68;3.90;;;12.10;75.00;;;;;;5029473;28;20054;-81
2020/12/19 12:23:34;;;;;;;6.28;4.30;;;12.20;75.20;;;;;;5029680;28;20037;-81
2020/12/19 12:25:59;;;;;;;4.65;3.60;;;12.20;75.20;;;;;;5030591;28;20017;-82
2020/12/19 12:28:25;;;;;;;5.15;4.10;;;12.40;75.30;;;;;;5029671;28;20030;-81
2020/12/19 12:30:50;;;;;;;3.75;3.30;;;12.40;75.20;;;;;;5029710;28;20033;-82
2020/12/19 12:33:16;;;;;;;4.78;3.65;;;12.60;75.10;;;;;;5029635;28;20021;-81
2020/12/19 12:35:42;;;;;;;3.83;3.40;;;12.70;74.90;;;;;;5028368;28;20030;-82
2020/12/19 12:38:07;;;;;;;4.95;3.97;;;12.70;74.70;;;;;;5031141;28;20012;-82
2020/12/19 12:40:33;;;;;;;5.63;4.35;;;12.80;75.10;;;;;;5030246;28;20022;-82
2020/12/19 12:42:58;;;;;;;4.30;3.72;;;12.90;74.50;;;;;;5030789;28;20029;-82
2020/12/19 12:45:23;;;;;;;4.53;3.80;;;12.90;74.30;;;;;;5028231;28;20301;-82
2020/12/19 12:47:49;;;;;;;4.50;3.42;;;12.90;74.10;;;;;;5028980;28;20018;-82
2020/12/19 12:50:14;;;;;;;4.72;4.10;;;13.00;73.90;;;;;;5028705;28;20030;-82
2020/12/19 12:52:40;;;;;;;4.75;3.83;;;13.00;73.90;;;;;;5029322;28;20026;-82
2020/12/19 12:55:05;;;;;;;4.72;3.92;;;13.20;73.90;;;;;;5029420;28;20484;-82